sensor_id;sensor_type;location;lat;lon;timestamp;temperature;humidity
10143;DHT22;5112;54.088;13.446;2023-04-24T00:05:05;9.90;99.90
10143;DHT22;5112;54.088;13.446;2023-04-24T00:15:10;10.50;99.90
10143;DHT22;5112;54.088;13.446;2023-04-24T00:25:11;10.60;99.90
10143;DHT22;5112;54.088;13.446;2023-04-24T00:35:14;10.70;99.90
10143;DHT22;5112;54.088;13.446;2023-04-24T00:45:16;10.90;99.90
10143;DHT22;5112;54.088;13.446;2023-04-24T00:55:19;10.90;99.90
10143;DHT22;5112;54.088;13.446;2023-04-24T01:05:21;10.90;99.90
10143;DHT22;5112;54.088;13.446;2023-04-24T01:15:24;11.00;99.90
10143;DHT22;5112;54.088;13.446;2023-04-24T01:25:28;10.50;99.90
10143;DHT22;5112;54.088;13.446;2023-04-24T01:35:29;10.10;99.90
10143;DHT22;5112;54.088;13.446;2023-04-24T01:45:33;9.80;99.90
10143;DHT22;5112;54.088;13.446;2023-04-24T01:55:34;9.90;99.90
10143;DHT22;5112;54.088;13.446;2023-04-24T02:05:37;10.00;99.90
10143;DHT22;5112;54.088;13.446;2023-04-24T02:15:39;10.10;99.90
10143;DHT22;5112;54.088;13.446;2023-04-24T02:25:42;10.20;99.90
10143;DHT22;5112;54.088;13.446;2023-04-24T02:35:44;10.50;99.90
10143;DHT22;5112;54.088;13.446;2023-04-24T02:45:47;10.40;99.90
10143;DHT22;5112;54.088;13.446;2023-04-24T02:55:49;10.20;99.90
10143;DHT22;5112;54.088;13.446;2023-04-24T03:05:52;10.10;99.90
10143;DHT22;5112;54.088;13.446;2023-04-24T03:15:54;10.10;99.90
10143;DHT22;5112;54.088;13.446;2023-04-24T03:25:57;9.90;99.90
10143;DHT22;5112;54.088;13.446;2023-04-24T03:35:58;10.10;99.90
10143;DHT22;5112;54.088;13.446;2023-04-24T03:46:01;10.00;99.90
10143;DHT22;5112;54.088;13.446;2023-04-24T03:56:03;10.10;99.90
10143;DHT22;5112;54.088;13.446;2023-04-24T04:06:06;10.00;99.90
10143;DHT22;5112;54.088;13.446;2023-04-24T04:16:09;9.90;99.90
10143;DHT22;5112;54.088;13.446;2023-04-24T04:26:12;9.90;99.90
10143;DHT22;5112;54.088;13.446;2023-04-24T04:36:14;10.10;99.90
10143;DHT22;5112;54.088;13.446;2023-04-24T04:46:19;10.80;99.90
10143;DHT22;5112;54.088;13.446;2023-04-24T04:56:20;11.80;99.90
10143;DHT22;5112;54.088;13.446;2023-04-24T05:06:24;11.70;99.90
10143;DHT22;5112;54.088;13.446;2023-04-24T05:16:26;11.90;99.90
10143;DHT22;5112;54.088;13.446;2023-04-24T05:26:29;11.70;99.90
10143;DHT22;5112;54.088;13.446;2023-04-24T05:36:31;11.60;99.90
10143;DHT22;5112;54.088;13.446;2023-04-24T05:46:34;11.70;99.90
10143;DHT22;5112;54.088;13.446;2023-04-24T05:56:35;11.80;99.90
10143;DHT22;5112;54.088;13.446;2023-04-24T06:06:39;11.70;99.90
10143;DHT22;5112;54.088;13.446;2023-04-24T06:16:42;11.80;99.90
10143;DHT22;5112;54.088;13.446;2023-04-24T06:26:45;11.80;99.90
10143;DHT22;5112;54.088;13.446;2023-04-24T06:36:46;11.80;99.90
10143;DHT22;5112;54.088;13.446;2023-04-24T06:46:49;11.60;99.90
10143;DHT22;5112;54.088;13.446;2023-04-24T06:56:51;11.50;99.90
10143;DHT22;5112;54.088;13.446;2023-04-24T07:06:54;11.60;99.90
10143;DHT22;5112;54.088;13.446;2023-04-24T07:16:58;11.70;99.90
10143;DHT22;5112;54.088;13.446;2023-04-24T07:27:00;12.20;99.90
10143;DHT22;5112;54.088;13.446;2023-04-24T07:37:02;12.40;99.90
10143;DHT22;5112;54.088;13.446;2023-04-24T07:47:05;13.30;99.90
10143;DHT22;5112;54.088;13.446;2023-04-24T07:57:07;14.00;99.90
10143;DHT22;5112;54.088;13.446;2023-04-24T08:07:10;15.00;99.90
10143;DHT22;5112;54.088;13.446;2023-04-24T08:17:13;15.10;99.90
10143;DHT22;5112;54.088;13.446;2023-04-24T08:27:16;15.10;99.90
10143;DHT22;5112;54.088;13.446;2023-04-24T08:37:18;14.60;99.90
10143;DHT22;5112;54.088;13.446;2023-04-24T08:47:22;14.30;99.90
10143;DHT22;5112;54.088;13.446;2023-04-24T08:57:25;14.70;99.90
10143;DHT22;5112;54.088;13.446;2023-04-24T09:07:30;14.90;99.90
10143;DHT22;5112;54.088;13.446;2023-04-24T09:17:33;15.50;99.90
10143;DHT22;5112;54.088;13.446;2023-04-24T09:27:41;16.20;99.90
10143;DHT22;5112;54.088;13.446;2023-04-24T09:37:44;16.60;99.90
10143;DHT22;5112;54.088;13.446;2023-04-24T09:47:51;16.50;99.90
10143;DHT22;5112;54.088;13.446;2023-04-24T09:57:55;16.90;99.90
10143;DHT22;5112;54.088;13.446;2023-04-24T10:08:00;16.90;99.90
10143;DHT22;5112;54.088;13.446;2023-04-24T10:18:04;17.10;99.90
10143;DHT22;5112;54.088;13.446;2023-04-24T10:28:09;16.70;99.90
10143;DHT22;5112;54.088;13.446;2023-04-24T10:38:14;16.90;99.90
10143;DHT22;5112;54.088;13.446;2023-04-24T10:48:18;16.60;99.90
10143;DHT22;5112;54.088;13.446;2023-04-24T10:58:23;17.30;99.90
10143;DHT22;5112;54.088;13.446;2023-04-24T11:08:31;17.30;99.90
10143;DHT22;5112;54.088;13.446;2023-04-24T11:18:39;16.70;99.90
10143;DHT22;5112;54.088;13.446;2023-04-24T11:28:48;17.10;99.90
10143;DHT22;5112;54.088;13.446;2023-04-24T11:38:50;17.50;99.90
10143;DHT22;5112;54.088;13.446;2023-04-24T11:48:53;17.90;99.90
10143;DHT22;5112;54.088;13.446;2023-04-24T11:58:55;17.10;99.90
10143;DHT22;5112;54.088;13.446;2023-04-24T12:08:58;17.30;99.90
10143;DHT22;5112;54.088;13.446;2023-04-24T12:19:01;18.80;99.90
10143;DHT22;5112;54.088;13.446;2023-04-24T12:29:04;19.20;99.90
10143;DHT22;5112;54.088;13.446;2023-04-24T12:39:14;19.60;99.90
10143;DHT22;5112;54.088;13.446;2023-04-24T12:49:17;19.50;99.90
10143;DHT22;5112;54.088;13.446;2023-04-24T12:59:19;18.80;99.90
10143;DHT22;5112;54.088;13.446;2023-04-24T13:09:22;18.90;99.90
10143;DHT22;5112;54.088;13.446;2023-04-24T13:19:24;18.30;99.90
10143;DHT22;5112;54.088;13.446;2023-04-24T13:29:28;18.20;99.90
10143;DHT22;5112;54.088;13.446;2023-04-24T13:39:30;17.50;99.90
10143;DHT22;5112;54.088;13.446;2023-04-24T13:49:32;16.30;99.90
10143;DHT22;5112;54.088;13.446;2023-04-24T13:59:34;16.30;99.90
10143;DHT22;5112;54.088;13.446;2023-04-24T14:09:38;15.60;99.90
10143;DHT22;5112;54.088;13.446;2023-04-24T14:19:40;15.20;99.90
10143;DHT22;5112;54.088;13.446;2023-04-24T14:29:43;14.90;99.90
10143;DHT22;5112;54.088;13.446;2023-04-24T14:39:45;14.60;99.90
10143;DHT22;5112;54.088;13.446;2023-04-24T14:49:48;14.50;99.90
10143;DHT22;5112;54.088;13.446;2023-04-24T14:59:50;14.50;99.90
10143;DHT22;5112;54.088;13.446;2023-04-24T15:09:53;14.40;99.90
10143;DHT22;5112;54.088;13.446;2023-04-24T15:19:55;14.30;99.90
10143;DHT22;5112;54.088;13.446;2023-04-24T15:29:58;14.20;99.90
10143;DHT22;5112;54.088;13.446;2023-04-24T15:40:00;14.20;99.90
10143;DHT22;5112;54.088;13.446;2023-04-24T15:50:09;14.10;99.90
10143;DHT22;5112;54.088;13.446;2023-04-24T16:00:12;14.50;99.90
10143;DHT22;5112;54.088;13.446;2023-04-24T16:10:15;15.10;99.90
10143;DHT22;5112;54.088;13.446;2023-04-24T16:20:17;15.90;99.90
10143;DHT22;5112;54.088;13.446;2023-04-24T16:30:20;16.20;99.90
10143;DHT22;5112;54.088;13.446;2023-04-24T16:40:22;15.90;99.90
10143;DHT22;5112;54.088;13.446;2023-04-24T16:50:25;16.10;99.90
10143;DHT22;5112;54.088;13.446;2023-04-24T17:00:26;15.80;99.90
10143;DHT22;5112;54.088;13.446;2023-04-24T17:10:30;15.40;99.90
10143;DHT22;5112;54.088;13.446;2023-04-24T17:20:32;14.90;99.90
10143;DHT22;5112;54.088;13.446;2023-04-24T17:30:35;14.40;99.90
10143;DHT22;5112;54.088;13.446;2023-04-24T17:40:37;14.00;99.90
10143;DHT22;5112;54.088;13.446;2023-04-24T17:50:41;13.80;99.90
10143;DHT22;5112;54.088;13.446;2023-04-24T18:00:43;13.80;99.90
10143;DHT22;5112;54.088;13.446;2023-04-24T18:10:46;13.70;99.90
10143;DHT22;5112;54.088;13.446;2023-04-24T18:20:47;13.60;99.90
10143;DHT22;5112;54.088;13.446;2023-04-24T18:30:50;13.40;99.90
10143;DHT22;5112;54.088;13.446;2023-04-24T18:40:52;13.20;99.90
10143;DHT22;5112;54.088;13.446;2023-04-24T18:50:55;13.00;99.90
10143;DHT22;5112;54.088;13.446;2023-04-24T19:00:57;12.80;99.90
10143;DHT22;5112;54.088;13.446;2023-04-24T19:11:00;12.70;99.90
10143;DHT22;5112;54.088;13.446;2023-04-24T19:21:01;12.60;99.90
10143;DHT22;5112;54.088;13.446;2023-04-24T19:31:04;12.40;99.90
10143;DHT22;5112;54.088;13.446;2023-04-24T19:41:06;12.10;99.90
10143;DHT22;5112;54.088;13.446;2023-04-24T19:51:09;12.00;99.90
10143;DHT22;5112;54.088;13.446;2023-04-24T20:01:11;11.60;99.90
10143;DHT22;5112;54.088;13.446;2023-04-24T20:11:14;11.20;99.90
10143;DHT22;5112;54.088;13.446;2023-04-24T20:21:16;10.80;99.90
10143;DHT22;5112;54.088;13.446;2023-04-24T20:31:19;10.50;99.90
10143;DHT22;5112;54.088;13.446;2023-04-24T20:41:20;10.50;99.90
10143;DHT22;5112;54.088;13.446;2023-04-24T20:51:23;10.50;99.90
10143;DHT22;5112;54.088;13.446;2023-04-24T21:01:25;10.50;99.90
10143;DHT22;5112;54.088;13.446;2023-04-24T21:11:30;10.30;99.90
10143;DHT22;5112;54.088;13.446;2023-04-24T21:21:32;9.90;99.90
10143;DHT22;5112;54.088;13.446;2023-04-24T21:31:35;9.80;99.90
10143;DHT22;5112;54.088;13.446;2023-04-24T21:41:37;9.80;99.90
10143;DHT22;5112;54.088;13.446;2023-04-24T21:51:40;9.60;99.90
10143;DHT22;5112;54.088;13.446;2023-04-24T22:01:41;9.50;99.90
10143;DHT22;5112;54.088;13.446;2023-04-24T22:11:45;9.40;99.90
10143;DHT22;5112;54.088;13.446;2023-04-24T22:21:46;9.30;99.90
10143;DHT22;5112;54.088;13.446;2023-04-24T22:31:49;9.10;99.90
10143;DHT22;5112;54.088;13.446;2023-04-24T22:41:51;8.90;99.90
10143;DHT22;5112;54.088;13.446;2023-04-24T22:51:54;8.80;99.90
10143;DHT22;5112;54.088;13.446;2023-04-24T23:01:58;8.60;99.90
10143;DHT22;5112;54.088;13.446;2023-04-24T23:12:02;8.50;99.90
10143;DHT22;5112;54.088;13.446;2023-04-24T23:22:04;8.40;99.90
10143;DHT22;5112;54.088;13.446;2023-04-24T23:32:07;8.50;99.90
10143;DHT22;5112;54.088;13.446;2023-04-24T23:42:09;8.40;99.90
10143;DHT22;5112;54.088;13.446;2023-04-24T23:52:12;8.40;99.90
